sensor_id;sensor_type;location;lat;lon;timestamp;pressure;altitude;pressure_sealevel;temperature;humidity
53440;BME280;39333;47.044;15.080;2022-10-22T00:01:40;96212.50;;;11.06;80.66
53440;BME280;39333;47.044;15.080;2022-10-22T00:04:07;96214.59;;;11.04;81.12
53440;BME280;39333;47.044;15.080;2022-10-22T00:06:34;96212.22;;;11.03;80.15
53440;BME280;39333;47.044;15.080;2022-10-22T00:09:00;96226.56;;;11.07;81.02
53440;BME280;39333;47.044;15.080;2022-10-22T00:11:27;96220.22;;;11.08;80.92
53440;BME280;39333;47.044;15.080;2022-10-22T00:13:54;96213.25;;;11.02;80.05
53440;BME280;39333;47.044;15.080;2022-10-22T00:16:20;96208.25;;;11.05;79.29
53440;BME280;39333;47.044;15.080;2022-10-22T00:18:47;96207.44;;;11.05;79.40
53440;BME280;39333;47.044;15.080;2022-10-22T00:21:14;96197.38;;;11.07;79.49
53440;BME280;39333;47.044;15.080;2022-10-22T00:23:41;96203.72;;;11.06;79.65
53440;BME280;39333;47.044;15.080;2022-10-22T00:26:09;96205.22;;;10.97;80.11
53440;BME280;39333;47.044;15.080;2022-10-22T00:28:35;96212.38;;;10.96;81.21
53440;BME280;39333;47.044;15.080;2022-10-22T00:31:03;96203.03;;;10.94;80.92
53440;BME280;39333;47.044;15.080;2022-10-22T00:33:29;96189.22;;;10.92;81.41
53440;BME280;39333;47.044;15.080;2022-10-22T00:35:56;96187.31;;;10.87;80.71
53440;BME280;39333;47.044;15.080;2022-10-22T00:38:23;96202.25;;;10.93;80.72
53440;BME280;39333;47.044;15.080;2022-10-22T00:40:50;96206.81;;;10.98;81.01
53440;BME280;39333;47.044;15.080;2022-10-22T00:43:18;96191.38;;;10.95;80.78
53440;BME280;39333;47.044;15.080;2022-10-22T00:45:45;96191.94;;;10.97;79.52
53440;BME280;39333;47.044;15.080;2022-10-22T00:48:14;96191.16;;;10.96;80.64
53440;BME280;39333;47.044;15.080;2022-10-22T00:50:44;96196.44;;;10.96;80.86
53440;BME280;39333;47.044;15.080;2022-10-22T00:53:19;96197.13;;;10.86;83.00
53440;BME280;39333;47.044;15.080;2022-10-22T00:55:51;96174.38;;;10.74;83.30
53440;BME280;39333;47.044;15.080;2022-10-22T00:58:20;96182.66;;;10.77;81.92
53440;BME280;39333;47.044;15.080;2022-10-22T01:00:48;96169.97;;;10.79;81.74
53440;BME280;39333;47.044;15.080;2022-10-22T01:03:15;96165.38;;;10.75;81.62
53440;BME280;39333;47.044;15.080;2022-10-22T01:05:45;96169.63;;;10.76;82.43
53440;BME280;39333;47.044;15.080;2022-10-22T01:08:45;96174.38;;;10.74;82.30
53440;BME280;39333;47.044;15.080;2022-10-22T01:14:20;96168.28;;;10.73;81.19
53440;BME280;39333;47.044;15.080;2022-10-22T01:17:09;96156.13;;;10.77;81.13
53440;BME280;39333;47.044;15.080;2022-10-22T01:22:41;96151.28;;;10.69;81.37
53440;BME280;39333;47.044;15.080;2022-10-22T01:25:22;96155.81;;;10.74;80.96
53440;BME280;39333;47.044;15.080;2022-10-22T01:30:39;96139.25;;;10.45;83.41
53440;BME280;39333;47.044;15.080;2022-10-22T01:33:09;96147.63;;;10.37;83.79
53440;BME280;39333;47.044;15.080;2022-10-22T01:35:41;96146.56;;;10.38;82.91
53440;BME280;39333;47.044;15.080;2022-10-22T01:38:14;96137.06;;;10.42;83.03
53440;BME280;39333;47.044;15.080;2022-10-22T01:40:43;96130.47;;;10.44;82.17
53440;BME280;39333;47.044;15.080;2022-10-22T01:43:10;96132.75;;;10.52;81.38
53440;BME280;39333;47.044;15.080;2022-10-22T01:45:53;96121.34;;;10.52;81.31
53440;BME280;39333;47.044;15.080;2022-10-22T01:56:46;96094.03;;;10.35;82.84
53440;BME280;39333;47.044;15.080;2022-10-22T01:59:40;96083.25;;;10.41;82.15
53440;BME280;39333;47.044;15.080;2022-10-22T02:02:30;96094.38;;;10.38;81.33
53440;BME280;39333;47.044;15.080;2022-10-22T02:05:14;96099.16;;;10.41;81.36
53440;BME280;39333;47.044;15.080;2022-10-22T02:07:49;96095.47;;;10.42;80.91
53440;BME280;39333;47.044;15.080;2022-10-22T02:10:17;96097.88;;;10.44;80.97
53440;BME280;39333;47.044;15.080;2022-10-22T02:12:47;96091.78;;;10.43;80.73
53440;BME280;39333;47.044;15.080;2022-10-22T02:15:17;96098.19;;;10.47;79.90
53440;BME280;39333;47.044;15.080;2022-10-22T02:17:46;96090.97;;;10.43;80.38
53440;BME280;39333;47.044;15.080;2022-10-22T02:20:19;96079.75;;;10.36;80.66
53440;BME280;39333;47.044;15.080;2022-10-22T02:22:48;96084.09;;;10.25;81.97
53440;BME280;39333;47.044;15.080;2022-10-22T02:25:15;96079.53;;;10.21;82.24
53440;BME280;39333;47.044;15.080;2022-10-22T02:27:48;96070.84;;;10.25;81.83
53440;BME280;39333;47.044;15.080;2022-10-22T02:30:21;96072.53;;;10.31;80.38
53440;BME280;39333;47.044;15.080;2022-10-22T02:33:08;96061.03;;;10.26;79.90
53440;BME280;39333;47.044;15.080;2022-10-22T02:35:38;96058.94;;;10.28;80.56
53440;BME280;39333;47.044;15.080;2022-10-22T02:38:07;96066.06;;;10.22;80.20
53440;BME280;39333;47.044;15.080;2022-10-22T02:40:34;96061.59;;;10.28;80.07
53440;BME280;39333;47.044;15.080;2022-10-22T02:43:03;96055.34;;;10.34;79.40
53440;BME280;39333;47.044;15.080;2022-10-22T02:45:31;96055.91;;;10.36;78.92
53440;BME280;39333;47.044;15.080;2022-10-22T02:47:58;96060.31;;;10.30;78.61
53440;BME280;39333;47.044;15.080;2022-10-22T02:50:25;96078.72;;;10.20;80.06
53440;BME280;39333;47.044;15.080;2022-10-22T02:52:51;96058.38;;;9.92;82.49
53440;BME280;39333;47.044;15.080;2022-10-22T02:55:18;96056.31;;;9.94;83.05
53440;BME280;39333;47.044;15.080;2022-10-22T02:57:44;96048.94;;;9.96;82.75
53440;BME280;39333;47.044;15.080;2022-10-22T03:00:12;96045.94;;;9.93;82.94
53440;BME280;39333;47.044;15.080;2022-10-22T03:02:39;96046.13;;;9.86;82.82
53440;BME280;39333;47.044;15.080;2022-10-22T03:05:06;96036.16;;;9.93;81.39
53440;BME280;39333;47.044;15.080;2022-10-22T03:07:33;96047.78;;;9.92;81.23
53440;BME280;39333;47.044;15.080;2022-10-22T03:09:59;96034.03;;;9.90;82.31
53440;BME280;39333;47.044;15.080;2022-10-22T03:12:26;96032.91;;;9.86;81.30
53440;BME280;39333;47.044;15.080;2022-10-22T03:14:53;96039.00;;;9.87;81.67
53440;BME280;39333;47.044;15.080;2022-10-22T03:17:19;96027.28;;;9.82;82.32
53440;BME280;39333;47.044;15.080;2022-10-22T03:19:46;96035.69;;;9.63;83.97
53440;BME280;39333;47.044;15.080;2022-10-22T03:22:17;96040.91;;;9.58;84.14
53440;BME280;39333;47.044;15.080;2022-10-22T03:24:49;96035.69;;;9.63;82.78
53440;BME280;39333;47.044;15.080;2022-10-22T03:27:19;96047.00;;;9.75;82.00
53440;BME280;39333;47.044;15.080;2022-10-22T03:29:48;96029.25;;;9.75;80.85
53440;BME280;39333;47.044;15.080;2022-10-22T03:32:15;96044.09;;;9.76;81.04
53440;BME280;39333;47.044;15.080;2022-10-22T03:34:41;96040.41;;;9.61;83.43
53440;BME280;39333;47.044;15.080;2022-10-22T03:37:08;96042.03;;;9.62;83.01
53440;BME280;39333;47.044;15.080;2022-10-22T03:39:35;96047.16;;;9.68;81.81
53440;BME280;39333;47.044;15.080;2022-10-22T03:42:03;96053.34;;;9.74;81.17
53440;BME280;39333;47.044;15.080;2022-10-22T03:44:31;96041.06;;;9.68;82.25
53440;BME280;39333;47.044;15.080;2022-10-22T03:46:58;96048.28;;;9.56;83.62
53440;BME280;39333;47.044;15.080;2022-10-22T03:49:28;96040.34;;;9.56;83.73
53440;BME280;39333;47.044;15.080;2022-10-22T03:51:55;96045.06;;;9.54;83.54
53440;BME280;39333;47.044;15.080;2022-10-22T03:54:21;96057.41;;;9.48;84.65
53440;BME280;39333;47.044;15.080;2022-10-22T03:56:48;96055.56;;;9.48;84.91
53440;BME280;39333;47.044;15.080;2022-10-22T03:59:15;96051.75;;;9.56;83.50
53440;BME280;39333;47.044;15.080;2022-10-22T04:01:41;96037.75;;;9.61;83.23
53440;BME280;39333;47.044;15.080;2022-10-22T04:04:08;96056.63;;;9.64;82.08
53440;BME280;39333;47.044;15.080;2022-10-22T04:06:35;96032.53;;;9.32;83.58
53440;BME280;39333;47.044;15.080;2022-10-22T04:09:01;96058.34;;;9.42;83.84
53440;BME280;39333;47.044;15.080;2022-10-22T04:11:28;96055.53;;;9.32;84.07
53440;BME280;39333;47.044;15.080;2022-10-22T04:13:55;96048.94;;;9.18;85.21
53440;BME280;39333;47.044;15.080;2022-10-22T04:16:22;96061.22;;;9.24;83.61
53440;BME280;39333;47.044;15.080;2022-10-22T04:18:52;96063.25;;;9.33;82.29
53440;BME280;39333;47.044;15.080;2022-10-22T04:21:19;96067.09;;;9.42;82.00
53440;BME280;39333;47.044;15.080;2022-10-22T04:23:48;96067.44;;;9.46;81.38
53440;BME280;39333;47.044;15.080;2022-10-22T04:26:16;96052.03;;;9.43;81.93
53440;BME280;39333;47.044;15.080;2022-10-22T04:28:44;96078.25;;;9.44;81.29
53440;BME280;39333;47.044;15.080;2022-10-22T04:31:16;96082.91;;;9.37;81.52
53440;BME280;39333;47.044;15.080;2022-10-22T04:33:43;96077.13;;;9.40;81.44
53440;BME280;39333;47.044;15.080;2022-10-22T04:36:12;96058.97;;;9.32;81.47
53440;BME280;39333;47.044;15.080;2022-10-22T04:38:40;96073.00;;;9.33;81.78
53440;BME280;39333;47.044;15.080;2022-10-22T04:41:16;96078.94;;;9.23;82.73
53440;BME280;39333;47.044;15.080;2022-10-22T04:43:44;96060.22;;;9.13;83.28
53440;BME280;39333;47.044;15.080;2022-10-22T04:46:12;96061.41;;;9.05;84.23
53440;BME280;39333;47.044;15.080;2022-10-22T04:48:40;96050.97;;;8.99;84.65
53440;BME280;39333;47.044;15.080;2022-10-22T04:51:10;96056.69;;;9.07;84.41
53440;BME280;39333;47.044;15.080;2022-10-22T04:53:37;96063.31;;;9.10;83.84
53440;BME280;39333;47.044;15.080;2022-10-22T04:56:07;96060.59;;;9.05;83.88
53440;BME280;39333;47.044;15.080;2022-10-22T04:58:34;96063.25;;;9.05;83.38
53440;BME280;39333;47.044;15.080;2022-10-22T05:01:12;96073.53;;;9.18;nan
53440;BME280;39333;47.044;15.080;2022-10-22T05:03:39;96055.19;;;9.28;82.19
53440;BME280;39333;47.044;15.080;2022-10-22T05:06:06;96051.03;;;9.32;81.71
53440;BME280;39333;47.044;15.080;2022-10-22T05:08:33;96045.28;;;9.35;81.14
53440;BME280;39333;47.044;15.080;2022-10-22T05:11:00;96050.91;;;9.39;80.64
53440;BME280;39333;47.044;15.080;2022-10-22T05:13:26;96027.34;;;9.37;81.10
53440;BME280;39333;47.044;15.080;2022-10-22T05:15:53;96019.47;;;9.42;80.73
53440;BME280;39333;47.044;15.080;2022-10-22T05:18:19;96023.22;;;9.30;81.23
53440;BME280;39333;47.044;15.080;2022-10-22T05:20:48;96023.38;;;8.95;84.59
53440;BME280;39333;47.044;15.080;2022-10-22T05:23:14;96043.84;;;8.99;84.19
53440;BME280;39333;47.044;15.080;2022-10-22T05:25:41;96043.38;;;9.02;84.58
53440;BME280;39333;47.044;15.080;2022-10-22T05:28:08;96055.09;;;9.06;83.95
53440;BME280;39333;47.044;15.080;2022-10-22T05:30:34;96048.38;;;9.16;83.32
53440;BME280;39333;47.044;15.080;2022-10-22T05:33:01;96047.75;;;9.25;82.59
53440;BME280;39333;47.044;15.080;2022-10-22T05:35:27;96053.69;;;9.32;82.83
53440;BME280;39333;47.044;15.080;2022-10-22T05:37:54;96050.16;;;9.27;83.92
53440;BME280;39333;47.044;15.080;2022-10-22T05:40:22;96046.75;;;9.15;84.25
53440;BME280;39333;47.044;15.080;2022-10-22T05:42:57;96061.94;;;9.19;83.52
53440;BME280;39333;47.044;15.080;2022-10-22T05:45:23;96064.97;;;9.28;83.24
53440;BME280;39333;47.044;15.080;2022-10-22T05:47:50;96057.94;;;9.33;82.47
53440;BME280;39333;47.044;15.080;2022-10-22T05:50:17;96071.56;;;9.42;81.96
53440;BME280;39333;47.044;15.080;2022-10-22T05:52:43;96080.31;;;9.42;82.06
53440;BME280;39333;47.044;15.080;2022-10-22T05:55:10;96072.59;;;9.24;83.36
53440;BME280;39333;47.044;15.080;2022-10-22T05:57:38;96074.28;;;9.02;86.60
53440;BME280;39333;47.044;15.080;2022-10-22T06:00:05;96086.00;;;9.06;86.27
53440;BME280;39333;47.044;15.080;2022-10-22T06:02:34;96083.31;;;9.18;85.67
53440;BME280;39333;47.044;15.080;2022-10-22T06:05:01;96080.03;;;9.27;84.24
53440;BME280;39333;47.044;15.080;2022-10-22T06:07:28;96066.13;;;9.32;84.91
53440;BME280;39333;47.044;15.080;2022-10-22T06:09:55;96081.84;;;9.38;84.63
53440;BME280;39333;47.044;15.080;2022-10-22T06:12:22;96075.53;;;9.39;84.55
53440;BME280;39333;47.044;15.080;2022-10-22T06:14:48;96073.53;;;9.46;84.78
53440;BME280;39333;47.044;15.080;2022-10-22T06:17:15;96082.59;;;9.51;83.42
53440;BME280;39333;47.044;15.080;2022-10-22T06:19:42;96071.31;;;9.55;84.51
53440;BME280;39333;47.044;15.080;2022-10-22T06:22:09;96075.06;;;9.59;83.63
53440;BME280;39333;47.044;15.080;2022-10-22T06:24:35;96087.19;;;9.55;84.36
53440;BME280;39333;47.044;15.080;2022-10-22T06:27:05;96088.84;;;9.61;82.83
53440;BME280;39333;47.044;15.080;2022-10-22T06:29:32;96097.69;;;9.67;82.48
53440;BME280;39333;47.044;15.080;2022-10-22T06:31:59;96097.00;;;9.71;82.95
53440;BME280;39333;47.044;15.080;2022-10-22T06:34:26;96113.69;;;9.72;83.20
53440;BME280;39333;47.044;15.080;2022-10-22T06:36:52;96115.75;;;9.70;83.90
53440;BME280;39333;47.044;15.080;2022-10-22T06:39:19;96120.47;;;9.68;85.33
53440;BME280;39333;47.044;15.080;2022-10-22T06:41:46;96115.81;;;9.75;85.75
53440;BME280;39333;47.044;15.080;2022-10-22T06:44:17;96120.28;;;9.86;85.55
53440;BME280;39333;47.044;15.080;2022-10-22T06:46:44;96113.63;;;10.00;85.07
53440;BME280;39333;47.044;15.080;2022-10-22T06:49:13;96119.06;;;10.10;85.91
53440;BME280;39333;47.044;15.080;2022-10-22T06:51:40;96116.19;;;10.12;86.09
53440;BME280;39333;47.044;15.080;2022-10-22T06:54:07;96120.38;;;10.25;85.70
53440;BME280;39333;47.044;15.080;2022-10-22T06:56:34;96126.81;;;10.29;85.89
53440;BME280;39333;47.044;15.080;2022-10-22T06:59:01;96110.44;;;10.32;86.03
53440;BME280;39333;47.044;15.080;2022-10-22T07:01:31;96113.97;;;10.37;86.52
53440;BME280;39333;47.044;15.080;2022-10-22T07:03:58;96127.91;;;10.49;85.43
53440;BME280;39333;47.044;15.080;2022-10-22T07:06:26;96129.56;;;10.56;85.37
53440;BME280;39333;47.044;15.080;2022-10-22T07:08:55;96135.16;;;10.54;85.46
53440;BME280;39333;47.044;15.080;2022-10-22T07:11:28;96137.25;;;10.52;86.09
53440;BME280;39333;47.044;15.080;2022-10-22T07:13:57;96151.06;;;10.54;86.23
53440;BME280;39333;47.044;15.080;2022-10-22T07:16:24;96147.97;;;10.62;86.32
53440;BME280;39333;47.044;15.080;2022-10-22T07:18:57;96146.44;;;10.66;86.33
53440;BME280;39333;47.044;15.080;2022-10-22T07:21:24;96145.72;;;10.71;86.41
53440;BME280;39333;47.044;15.080;2022-10-22T07:23:51;96147.69;;;10.80;85.95
53440;BME280;39333;47.044;15.080;2022-10-22T07:26:18;96146.97;;;10.85;85.50
53440;BME280;39333;47.044;15.080;2022-10-22T07:28:47;96153.22;;;10.96;85.92
53440;BME280;39333;47.044;15.080;2022-10-22T07:31:16;96170.06;;;11.06;86.10
53440;BME280;39333;47.044;15.080;2022-10-22T07:33:43;96182.50;;;11.06;85.39
53440;BME280;39333;47.044;15.080;2022-10-22T07:36:12;96185.13;;;11.01;85.73
53440;BME280;39333;47.044;15.080;2022-10-22T07:38:48;96181.34;;;10.97;86.56
53440;BME280;39333;47.044;15.080;2022-10-22T07:41:15;96195.41;;;10.97;86.76
53440;BME280;39333;47.044;15.080;2022-10-22T07:43:42;96196.03;;;11.04;86.71
53440;BME280;39333;47.044;15.080;2022-10-22T07:46:09;96207.84;;;11.13;87.22
53440;BME280;39333;47.044;15.080;2022-10-22T07:48:36;96200.84;;;11.07;87.98
53440;BME280;39333;47.044;15.080;2022-10-22T07:51:04;96215.56;;;11.15;87.62
53440;BME280;39333;47.044;15.080;2022-10-22T07:53:31;96213.75;;;11.20;87.25
53440;BME280;39333;47.044;15.080;2022-10-22T07:55:58;96221.72;;;11.20;86.86
53440;BME280;39333;47.044;15.080;2022-10-22T07:58:25;96230.31;;;11.28;87.41
53440;BME280;39333;47.044;15.080;2022-10-22T08:00:55;96243.00;;;11.26;86.23
53440;BME280;39333;47.044;15.080;2022-10-22T08:03:23;96256.13;;;11.32;87.15
53440;BME280;39333;47.044;15.080;2022-10-22T08:05:50;96258.53;;;11.34;87.05
53440;BME280;39333;47.044;15.080;2022-10-22T08:08:18;96263.28;;;11.32;87.09
53440;BME280;39333;47.044;15.080;2022-10-22T08:10:46;96257.41;;;11.30;86.39
53440;BME280;39333;47.044;15.080;2022-10-22T08:13:13;96253.47;;;11.32;85.74
53440;BME280;39333;47.044;15.080;2022-10-22T08:15:41;96267.91;;;11.41;86.32
53440;BME280;39333;47.044;15.080;2022-10-22T08:18:08;96271.13;;;11.43;87.06
53440;BME280;39333;47.044;15.080;2022-10-22T08:20:35;96274.91;;;11.47;86.86
53440;BME280;39333;47.044;15.080;2022-10-22T08:23:02;96273.28;;;11.46;86.47
53440;BME280;39333;47.044;15.080;2022-10-22T08:25:29;96274.47;;;11.55;85.72
53440;BME280;39333;47.044;15.080;2022-10-22T08:27:55;96277.06;;;11.50;86.56
53440;BME280;39333;47.044;15.080;2022-10-22T08:30:22;96279.72;;;11.50;86.17
53440;BME280;39333;47.044;15.080;2022-10-22T08:32:49;96277.25;;;11.44;87.46
53440;BME280;39333;47.044;15.080;2022-10-22T08:35:19;96286.59;;;11.30;88.82
53440;BME280;39333;47.044;15.080;2022-10-22T08:37:46;96286.59;;;11.30;90.15
53440;BME280;39333;47.044;15.080;2022-10-22T08:40:27;96283.63;;;11.26;91.39
53440;BME280;39333;47.044;15.080;2022-10-22T08:45:47;96265.00;;;11.43;90.57
53440;BME280;39333;47.044;15.080;2022-10-22T08:50:58;96262.28;;;11.76;92.85
53440;BME280;39333;47.044;15.080;2022-10-22T08:53:40;96265.84;;;11.87;92.05
53440;BME280;39333;47.044;15.080;2022-10-22T08:56:08;96268.66;;;12.02;92.93
53440;BME280;39333;47.044;15.080;2022-10-22T08:58:39;96272.09;;;12.24;93.37
53440;BME280;39333;47.044;15.080;2022-10-22T09:01:31;96267.41;;;12.32;93.94
53440;BME280;39333;47.044;15.080;2022-10-22T09:04:08;96286.69;;;12.49;94.61
53440;BME280;39333;47.044;15.080;2022-10-22T09:06:38;96288.38;;;12.60;95.01
53440;BME280;39333;47.044;15.080;2022-10-22T09:09:15;96289.03;;;12.72;94.97
53440;BME280;39333;47.044;15.080;2022-10-22T09:11:46;96285.84;;;12.75;94.50
53440;BME280;39333;47.044;15.080;2022-10-22T09:14:16;96287.28;;;12.88;94.26
53440;BME280;39333;47.044;15.080;2022-10-22T09:19:39;96275.06;;;13.24;93.37
53440;BME280;39333;47.044;15.080;2022-10-22T09:25:13;96297.06;;;13.51;90.25
53440;BME280;39333;47.044;15.080;2022-10-22T09:27:43;96299.28;;;13.70;90.84
53440;BME280;39333;47.044;15.080;2022-10-22T09:30:21;96294.03;;;13.85;90.95
53440;BME280;39333;47.044;15.080;2022-10-22T09:32:59;96296.22;;;14.03;90.33
53440;BME280;39333;47.044;15.080;2022-10-22T09:35:27;96290.66;;;14.15;89.52
53440;BME280;39333;47.044;15.080;2022-10-22T09:37:55;96296.31;;;14.39;88.99
53440;BME280;39333;47.044;15.080;2022-10-22T09:40:22;96292.66;;;14.70;88.08
53440;BME280;39333;47.044;15.080;2022-10-22T09:42:49;96298.81;;;14.96;86.57
53440;BME280;39333;47.044;15.080;2022-10-22T09:45:22;96291.06;;;15.20;85.99
53440;BME280;39333;47.044;15.080;2022-10-22T09:48:03;96286.75;;;15.34;85.52
53440;BME280;39333;47.044;15.080;2022-10-22T09:50:43;96296.34;;;15.45;85.04
53440;BME280;39333;47.044;15.080;2022-10-22T09:53:16;96294.22;;;15.47;85.03
53440;BME280;39333;47.044;15.080;2022-10-22T09:55:49;96277.66;;;15.55;85.91
53440;BME280;39333;47.044;15.080;2022-10-22T09:58:17;96287.00;;;15.48;84.43
53440;BME280;39333;47.044;15.080;2022-10-22T10:00:49;96287.03;;;15.58;85.42
53440;BME280;39333;47.044;15.080;2022-10-22T10:03:27;96282.16;;;15.65;85.35
53440;BME280;39333;47.044;15.080;2022-10-22T10:05:57;96282.94;;;15.75;86.57
53440;BME280;39333;47.044;15.080;2022-10-22T10:08:30;96275.69;;;15.81;86.14
53440;BME280;39333;47.044;15.080;2022-10-22T10:11:18;96277.56;;;15.81;85.80
53440;BME280;39333;47.044;15.080;2022-10-22T10:14:06;96287.19;;;15.82;86.64
53440;BME280;39333;47.044;15.080;2022-10-22T10:16:56;96283.16;;;15.89;87.06
53440;BME280;39333;47.044;15.080;2022-10-22T10:25:11;96295.16;;;15.92;86.52
53440;BME280;39333;47.044;15.080;2022-10-22T10:30:32;96285.28;;;15.92;87.24
53440;BME280;39333;47.044;15.080;2022-10-22T10:36:18;96291.94;;;15.95;87.14
53440;BME280;39333;47.044;15.080;2022-10-22T10:39:00;96300.25;;;15.93;87.85
53440;BME280;39333;47.044;15.080;2022-10-22T10:47:20;96296.75;;;15.98;86.46
53440;BME280;39333;47.044;15.080;2022-10-22T10:49:54;96297.75;;;16.12;86.97
53440;BME280;39333;47.044;15.080;2022-10-22T10:52:39;96305.22;;;16.20;87.17
53440;BME280;39333;47.044;15.080;2022-10-22T11:00:45;96307.84;;;16.25;87.99
53440;BME280;39333;47.044;15.080;2022-10-22T11:06:02;96307.03;;;16.35;88.45
53440;BME280;39333;47.044;15.080;2022-10-22T11:11:06;96309.38;;;16.41;88.27
53440;BME280;39333;47.044;15.080;2022-10-22T11:19:26;96305.56;;;16.53;88.06
53440;BME280;39333;47.044;15.080;2022-10-22T11:23:05;96321.91;;;16.51;86.94
53440;BME280;39333;47.044;15.080;2022-10-22T11:25:48;96320.31;;;16.50;87.13
53440;BME280;39333;47.044;15.080;2022-10-22T11:30:59;96308.06;;;16.39;87.57
53440;BME280;39333;47.044;15.080;2022-10-22T11:33:36;96301.41;;;16.31;86.77
53440;BME280;39333;47.044;15.080;2022-10-22T11:36:07;96311.06;;;16.27;87.22
53440;BME280;39333;47.044;15.080;2022-10-22T11:38:34;96312.72;;;16.23;87.19
53440;BME280;39333;47.044;15.080;2022-10-22T11:41:18;96312.19;;;16.21;87.63
53440;BME280;39333;47.044;15.080;2022-10-22T11:44:08;96304.97;;;16.17;87.82
53440;BME280;39333;47.044;15.080;2022-10-22T11:49:24;96300.75;;;16.05;89.26
53440;BME280;39333;47.044;15.080;2022-10-22T11:51:51;96311.72;;;16.04;89.08
53440;BME280;39333;47.044;15.080;2022-10-22T11:59:57;96317.28;;;16.07;90.23
53440;BME280;39333;47.044;15.080;2022-10-22T12:05:00;96316.81;;;15.95;90.41
53440;BME280;39333;47.044;15.080;2022-10-22T12:10:20;96317.72;;;15.70;91.21
53440;BME280;39333;47.044;15.080;2022-10-22T12:13:17;96323.06;;;15.70;91.25
53440;BME280;39333;47.044;15.080;2022-10-22T12:15:47;96334.28;;;15.67;90.89
53440;BME280;39333;47.044;15.080;2022-10-22T12:18:15;96328.41;;;15.60;90.24
53440;BME280;39333;47.044;15.080;2022-10-22T12:20:42;96334.81;;;15.59;89.60
53440;BME280;39333;47.044;15.080;2022-10-22T12:23:10;96337.50;;;15.49;88.60
53440;BME280;39333;47.044;15.080;2022-10-22T12:25:38;96335.38;;;15.41;88.51
53440;BME280;39333;47.044;15.080;2022-10-22T12:28:10;96347.13;;;15.30;87.78
53440;BME280;39333;47.044;15.080;2022-10-22T12:30:37;96351.94;;;15.28;88.04
53440;BME280;39333;47.044;15.080;2022-10-22T12:33:06;96346.06;;;15.21;87.74
53440;BME280;39333;47.044;15.080;2022-10-22T12:35:41;96353.81;;;15.12;88.78
53440;BME280;39333;47.044;15.080;2022-10-22T12:38:17;96349.81;;;15.04;89.19
53440;BME280;39333;47.044;15.080;2022-10-22T12:40:46;96352.47;;;14.94;89.34
53440;BME280;39333;47.044;15.080;2022-10-22T12:43:17;96359.13;;;14.97;89.43
53440;BME280;39333;47.044;15.080;2022-10-22T12:45:46;96358.34;;;14.96;89.12
53440;BME280;39333;47.044;15.080;2022-10-22T12:50:44;96356.19;;;14.83;88.97
53440;BME280;39333;47.044;15.080;2022-10-22T12:53:24;96361.25;;;14.80;89.32
53440;BME280;39333;47.044;15.080;2022-10-22T12:55:53;96367.94;;;14.82;89.53
53440;BME280;39333;47.044;15.080;2022-10-22T12:58:24;96359.13;;;14.87;90.35
53440;BME280;39333;47.044;15.080;2022-10-22T13:00:56;96358.59;;;14.85;90.14
53440;BME280;39333;47.044;15.080;2022-10-22T13:03:48;96364.47;;;14.87;89.91
53440;BME280;39333;47.044;15.080;2022-10-22T13:09:02;96380.75;;;14.95;90.22
53440;BME280;39333;47.044;15.080;2022-10-22T13:11:49;96368.47;;;14.94;89.76
53440;BME280;39333;47.044;15.080;2022-10-22T13:14:27;96371.69;;;14.91;88.92
53440;BME280;39333;47.044;15.080;2022-10-22T13:17:11;96370.31;;;14.79;87.03
53440;BME280;39333;47.044;15.080;2022-10-22T13:22:23;96356.44;;;14.66;87.40
53440;BME280;39333;47.044;15.080;2022-10-22T13:24:51;96358.56;;;14.64;88.22
53440;BME280;39333;47.044;15.080;2022-10-22T13:27:18;96360.16;;;14.65;88.37
53440;BME280;39333;47.044;15.080;2022-10-22T13:29:45;96358.03;;;14.67;87.97
53440;BME280;39333;47.044;15.080;2022-10-22T13:32:30;96354.03;;;14.70;87.42
53440;BME280;39333;47.044;15.080;2022-10-22T13:34:59;96366.31;;;14.71;87.87
53440;BME280;39333;47.044;15.080;2022-10-22T13:37:29;96357.25;;;14.67;87.68
53440;BME280;39333;47.044;15.080;2022-10-22T13:39:56;96368.97;;;14.66;87.29
53440;BME280;39333;47.044;15.080;2022-10-22T13:42:23;96372.16;;;14.63;87.70
53440;BME280;39333;47.044;15.080;2022-10-22T13:44:50;96381.25;;;14.57;88.39
53440;BME280;39333;47.044;15.080;2022-10-22T13:47:25;96381.47;;;14.50;89.30
53440;BME280;39333;47.044;15.080;2022-10-22T13:49:54;96391.84;;;14.47;89.89
53440;BME280;39333;47.044;15.080;2022-10-22T13:52:37;96388.63;;;14.40;88.91
53440;BME280;39333;47.044;15.080;2022-10-22T13:55:20;96391.59;;;14.43;88.04
53440;BME280;39333;47.044;15.080;2022-10-22T13:57:47;96398.00;;;14.42;87.45
53440;BME280;39333;47.044;15.080;2022-10-22T14:00:18;96392.13;;;14.40;88.15
53440;BME280;39333;47.044;15.080;2022-10-22T14:02:47;96394.47;;;14.36;88.43
53440;BME280;39333;47.044;15.080;2022-10-22T14:05:16;96387.50;;;14.30;88.02
53440;BME280;39333;47.044;15.080;2022-10-22T14:07:43;96396.56;;;14.29;88.99
53440;BME280;39333;47.044;15.080;2022-10-22T14:10:18;96404.56;;;14.29;89.10
53440;BME280;39333;47.044;15.080;2022-10-22T14:12:46;96406.44;;;14.24;88.03
53440;BME280;39333;47.044;15.080;2022-10-22T14:15:21;96404.53;;;14.19;87.20
53440;BME280;39333;47.044;15.080;2022-10-22T14:17:56;96408.25;;;14.18;87.25
53440;BME280;39333;47.044;15.080;2022-10-22T14:20:26;96407.16;;;14.14;86.93
53440;BME280;39333;47.044;15.080;2022-10-22T14:22:55;96406.38;;;14.14;86.99
53440;BME280;39333;47.044;15.080;2022-10-22T14:25:24;96407.97;;;14.10;86.44
53440;BME280;39333;47.044;15.080;2022-10-22T14:27:51;96403.16;;;14.07;86.31
53440;BME280;39333;47.044;15.080;2022-10-22T14:30:20;96398.88;;;14.06;88.05
53440;BME280;39333;47.044;15.080;2022-10-22T14:32:47;96399.13;;;14.04;88.79
53440;BME280;39333;47.044;15.080;2022-10-22T14:35:17;96394.31;;;13.96;89.23
53440;BME280;39333;47.044;15.080;2022-10-22T14:37:44;96400.66;;;13.90;89.06